Time;durP1;ratioP1;P1;durP2;ratioP2;P2;SDS_P1;SDS_P2;PMS_P1;PMS_P2;Temp;Humidity;BMP_temperature;BMP_pressure;BME280_temperature;BME280_humidity;BME280_pressure;Samples;Min_cycle;Max_cycle;Signal;HPM_P1;HPM_P2
2021/10/11 00:01:17;;;;;;;;;23.00;21.75;;;;;21.92;46.00;102401.09;5017489;28;51052;-48
2021/10/11 00:03:42;;;;;;;;;22.75;20.75;;;;;21.93;45.81;102407.47;4998147;28;52786;-52
2021/10/11 00:06:08;;;;;;;;;25.50;19.50;;;;;21.92;45.95;102398.34;5014779;28;50870;-48
2021/10/11 00:08:33;;;;;;;;;20.25;19.00;;;;;21.92;46.00;102401.09;5017431;28;51040;-51
2021/10/11 00:10:58;;;;;;;;;21.75;18.75;;;;;21.92;45.81;102391.97;5014302;28;50898;-50
2021/10/11 00:13:24;;;;;;;;;28.00;22.75;;;;;21.92;46.23;102397.47;5011860;28;51600;-49
2021/10/11 00:15:50;;;;;;;;;23.50;21.50;;;;;21.90;45.96;102395.78;5012676;28;51116;-53
2021/10/11 00:18:15;;;;;;;;;25.50;22.50;;;;;21.90;45.83;102393.03;5006307;28;51070;-50
2021/10/11 00:20:41;;;;;;;;;20.75;19.00;;;;;21.90;46.08;102401.28;5007990;28;51003;-46
2021/10/11 00:23:06;;;;;;;;;22.50;20.75;;;;;21.89;46.00;102404.25;5017410;28;50919;-49
2021/10/11 00:25:32;;;;;;;;;20.25;19.00;;;;;21.89;46.42;102398.75;4997910;28;51011;-50
2021/10/11 00:27:57;;;;;;;;;20.50;20.25;;;;;21.90;45.92;102400.44;4999601;28;51038;-49
2021/10/11 00:30:23;;;;;;;;;23.25;21.25;;;;;21.89;46.08;102404.25;5006319;28;51400;-49
2021/10/11 00:32:48;;;;;;;;;23.50;22.00;;;;;21.88;46.44;102403.41;4987520;28;52197;-51
2021/10/11 00:35:14;;;;;;;;;26.00;21.50;;;;;21.87;46.54;102401.66;5000467;28;51014;-47
2021/10/11 00:37:39;;;;;;;;;22.00;20.50;;;;;21.86;46.43;102411.00;4999086;28;50887;-52
2021/10/11 00:40:06;;;;;;;;;21.25;20.00;;;;;21.86;46.08;102399.97;5004960;28;50851;-49
2021/10/11 00:42:32;;;;;;;;;21.00;19.50;;;;;21.86;46.06;102399.97;5006695;28;52754;-48
2021/10/11 00:44:57;;;;;;;;;23.75;22.00;;;;;21.86;46.40;102399.09;4990177;28;51041;-47
2021/10/11 00:47:22;;;;;;;;;19.25;18.25;;;;;21.87;46.73;102407.19;5014534;28;51132;-47
2021/10/11 00:49:48;;;;;;;;;26.50;21.00;;;;;21.85;46.04;102406.53;5013924;28;51395;-47
2021/10/11 00:52:14;;;;;;;;;24.75;21.00;;;;;21.85;46.61;102394.63;4999346;28;54076;-47
2021/10/11 00:54:39;;;;;;;;;22.50;21.50;;;;;21.85;46.48;102394.63;4991496;28;51105;-48
2021/10/11 00:57:05;;;;;;;;;26.25;20.00;;;;;21.84;46.57;102403.97;4997552;28;51187;-47
2021/10/11 00:59:30;;;;;;;;;21.00;19.00;;;;;21.84;46.58;102390.16;4997601;28;51318;-50
2021/10/11 01:01:56;;;;;;;;;18.50;16.75;;;;;21.84;46.07;102395.69;5010958;28;51918;-48
2021/10/11 01:04:21;;;;;;;;;25.00;20.50;;;;;21.83;46.48;102388.47;5006823;28;50874;-47
2021/10/11 01:06:47;;;;;;;;;22.50;20.25;;;;;21.83;46.03;102389.31;5007225;28;51076;-48
2021/10/11 01:09:13;;;;;;;;;23.25;19.75;;;;;21.83;46.06;102383.81;5012064;28;50943;-47
2021/10/11 01:11:39;;;;;;;;;26.50;23.25;;;;;21.83;46.10;102382.94;5006090;28;51862;-46
2021/10/11 01:14:06;;;;;;;;;19.75;18.25;;;;;21.82;46.48;102390.38;5013755;28;51452;-46
2021/10/11 01:16:32;;;;;;;;;22.25;20.75;;;;;21.82;46.36;102386.75;4997739;28;50995;-49
2021/10/11 01:18:58;;;;;;;;;16.25;15.25;;;;;21.81;46.58;102385.91;4996991;28;50951;-48
2021/10/11 01:21:25;;;;;;;;;20.25;20.25;;;;;21.82;46.26;102390.38;4996715;28;52445;-49
2021/10/11 01:23:52;;;;;;;;;25.00;22.50;;;;;21.81;46.67;102391.44;5010387;28;50942;-48
2021/10/11 01:26:18;;;;;;;;;21.75;21.00;;;;;21.82;46.81;102392.28;4994816;28;51045;-48
2021/10/11 01:28:44;;;;;;;;;17.00;16.00;;;;;21.81;46.07;102390.56;5016593;28;50940;-48
2021/10/11 01:31:09;;;;;;;;;19.75;19.50;;;;;21.81;46.57;102380.38;5008486;28;50878;-48
2021/10/11 01:33:35;;;;;;;;;23.25;21.25;;;;;21.80;46.20;102386.97;5008113;28;51060;-51
2021/10/11 01:36:00;;;;;;;;;22.50;19.25;;;;;21.80;46.52;102389.72;5015518;28;50911;-47
2021/10/11 01:38:26;;;;;;;;;19.25;18.25;;;;;21.80;46.28;102378.69;5016387;28;50916;-47
2021/10/11 01:40:51;;;;;;;;;21.75;19.50;;;;;21.80;46.54;102372.31;5002152;28;51085;-46
2021/10/11 01:43:17;;;;;;;;;21.50;20.25;;;;;21.80;46.09;102381.44;4997914;28;51077;-50
2021/10/11 01:45:47;;;;;;;;;26.50;17.25;;;;;21.77;46.66;102368.00;4984317;28;51073;-50
2021/10/11 01:48:13;;;;;;;;;20.75;18.25;;;;;21.78;46.48;102364.25;4990397;28;51102;-47
2021/10/11 01:50:39;;;;;;;;;22.00;19.25;;;;;21.77;46.43;102364.41;5004408;28;51405;-48
2021/10/11 01:53:04;;;;;;;;;23.00;21.25;;;;;21.76;46.19;102360.78;4999630;28;51039;-54
2021/10/11 01:55:29;;;;;;;;;21.50;19.75;;;;;21.76;46.20;102360.78;5011174;28;51009;-48
2021/10/11 01:57:55;;;;;;;;;22.50;19.50;;;;;21.76;46.62;102374.59;5019678;28;51034;-46
2021/10/11 02:00:20;;;;;;;;;19.50;17.00;;;;;21.75;46.78;102369.28;4984231;28;52914;-47
2021/10/11 02:02:45;;;;;;;;;21.25;18.75;;;;;21.75;46.43;102392.19;4999340;28;50988;-48
2021/10/11 02:05:11;;;;;;;;;20.25;19.75;;;;;21.76;46.22;102382.00;5009936;28;51032;-48
2021/10/11 02:07:37;;;;;;;;;21.50;18.50;;;;;21.75;46.32;102386.66;5018800;28;51100;-47
2021/10/11 02:10:07;;;;;;;;;22.25;22.25;;;;;21.74;46.63;102390.47;5005282;28;51060;-48
2021/10/11 02:12:32;;;;;;;;;20.50;19.25;;;;;21.74;46.39;102384.97;5017509;28;51324;-48
2021/10/11 02:14:58;;;;;;;;;24.00;18.25;;;;;21.74;46.29;102379.44;5003092;28;51113;-47
2021/10/11 02:17:24;;;;;;;;;21.50;19.00;;;;;21.74;46.47;102389.63;4982182;28;51085;-47
2021/10/11 02:19:49;;;;;;;;;24.25;21.50;;;;;21.73;46.77;102377.75;5000448;28;52643;-51
2021/10/11 02:22:15;;;;;;;;;21.50;19.25;;;;;21.75;46.78;102372.03;4999477;28;50981;-48
2021/10/11 02:24:41;;;;;;;;;23.75;21.75;;;;;21.74;46.25;102376.69;5004135;28;50985;-46
2021/10/11 02:27:06;;;;;;;;;26.25;18.50;;;;;21.74;46.79;102384.09;5011202;28;51139;-49
2021/10/11 02:29:32;;;;;;;;;22.50;20.50;;;;;21.73;46.76;102377.75;5015319;28;50926;-47
2021/10/11 02:31:57;;;;;;;;;19.00;16.00;;;;;21.73;46.44;102380.50;5012360;28;50934;-45
2021/10/11 02:34:23;;;;;;;;;17.75;16.25;;;;;21.73;46.62;102369.47;5006849;28;51076;-47
2021/10/11 02:36:49;;;;;;;;;22.50;21.50;;;;;21.73;46.39;102368.63;5017695;28;50870;-46
2021/10/11 02:39:14;;;;;;;;;20.50;18.75;;;;;21.74;46.40;102359.28;4998597;28;51978;-45
2021/10/11 02:41:39;;;;;;;;;19.00;16.50;;;;;21.74;46.49;102356.53;4999916;28;51173;-46
2021/10/11 02:44:05;;;;;;;;;17.00;17.00;;;;;21.73;46.88;102355.69;5018246;28;50988;-46
2021/10/11 02:46:31;;;;;;;;;21.75;17.50;;;;;21.73;46.77;102349.31;5005025;28;51081;-46
2021/10/11 02:48:56;;;;;;;;;18.25;17.00;;;;;21.72;46.43;102358.63;4998624;28;51287;-46
2021/10/11 02:51:21;;;;;;;;;19.75;17.25;;;;;21.72;46.88;102353.13;5010093;28;51054;-48
2021/10/11 02:53:49;;;;;;;;;23.25;19.00;;;;;21.72;46.94;102356.72;5017749;28;51127;-49
2021/10/11 02:56:16;;;;;;;;;16.25;14.50;;;;;21.72;46.81;102358.63;5000323;28;51041;-47
2021/10/11 02:58:41;;;;;;;;;20.75;18.75;;;;;21.71;46.93;102345.91;4998728;28;50999;-46
2021/10/11 03:01:07;;;;;;;;;18.00;15.75;;;;;21.71;46.73;102338.47;5013308;28;51044;-46
2021/10/11 03:03:32;;;;;;;;;17.50;15.50;;;;;21.70;46.82;102342.28;5018333;28;51033;-47
2021/10/11 03:05:57;;;;;;;;;17.25;17.00;;;;;21.71;46.54;102337.63;5018535;28;51122;-50
2021/10/11 03:08:23;;;;;;;;;16.75;15.00;;;;;21.70;46.27;102333.16;5018081;28;51957;-46
2021/10/11 03:10:48;;;;;;;;;15.25;12.25;;;;;21.70;46.80;102342.28;5004330;28;51250;-49
2021/10/11 03:13:13;;;;;;;;;15.75;14.25;;;;;21.70;46.49;102341.44;5001735;28;51490;-45
2021/10/11 03:15:39;;;;;;;;;21.00;19.00;;;;;21.69;46.84;102343.34;5001542;28;50971;-48
2021/10/11 03:18:04;;;;;;;;;21.00;18.75;;;;;21.69;46.81;102345.25;5009961;28;51514;-46
2021/10/11 03:20:29;;;;;;;;;18.25;16.50;;;;;21.68;46.84;102346.28;5000763;28;51101;-47
2021/10/11 03:22:55;;;;;;;;;14.50;14.00;;;;;21.69;46.56;102354.38;4999880;28;51092;-46
2021/10/11 03:25:20;;;;;;;;;18.50;13.75;;;;;21.68;46.97;102346.28;5011608;28;51183;-48
2021/10/11 03:27:46;;;;;;;;;15.50;14.75;;;;;21.67;46.78;102350.06;5017728;28;51623;-46
2021/10/11 03:30:11;;;;;;;;;19.00;14.00;;;;;21.68;46.98;102351.81;5016966;28;50965;-41
2021/10/11 03:32:36;;;;;;;;;17.50;16.00;;;;;21.67;46.92;102353.69;5008443;28;51312;-40
2021/10/11 03:35:02;;;;;;;;;17.50;17.50;;;;;21.67;46.45;102350.91;4998737;28;51964;-43
2021/10/11 03:37:27;;;;;;;;;18.00;14.25;;;;;21.67;46.68;102352.81;4980478;28;52512;-41
2021/10/11 03:39:53;;;;;;;;;13.50;12.50;;;;;21.66;46.58;102357.50;5002414;28;51073;-41
2021/10/11 03:42:18;;;;;;;;;16.00;14.25;;;;;21.67;46.46;102361.09;4991195;28;52085;-43
2021/10/11 03:44:43;;;;;;;;;18.00;15.25;;;;;21.66;47.02;102365.75;5018304;28;51203;-42
2021/10/11 03:47:09;;;;;;;;;16.50;16.00;;;;;21.67;46.63;102355.59;5001552;28;51817;-41
2021/10/11 03:49:34;;;;;;;;;13.75;13.75;;;;;21.66;47.06;102365.75;5005007;28;50919;-41
2021/10/11 03:52:00;;;;;;;;;15.50;13.75;;;;;21.66;46.63;102365.75;5006003;28;51441;-41
2021/10/11 03:54:25;;;;;;;;;16.25;13.00;;;;;21.66;46.58;102364.91;5018086;28;51290;-44
2021/10/11 03:56:50;;;;;;;;;12.50;11.00;;;;;21.65;46.39;102358.53;5014518;28;51755;-44
2021/10/11 03:59:16;;;;;;;;;18.00;14.25;;;;;21.66;46.53;102362.16;5015976;28;50900;-42
2021/10/11 04:01:41;;;;;;;;;14.50;10.75;;;;;21.66;47.28;102362.16;5006134;28;51041;-43
2021/10/11 04:04:07;;;;;;;;;16.25;15.50;;;;;21.65;46.52;102361.31;4997843;28;50914;-41
2021/10/11 04:06:33;;;;;;;;;19.25;14.25;;;;;21.66;46.66;102368.53;5011501;28;51936;-42
2021/10/11 04:09:00;;;;;;;;;15.75;12.50;;;;;21.65;46.59;102357.69;5004941;28;51036;-42
2021/10/11 04:11:25;;;;;;;;;12.75;11.75;;;;;21.64;47.08;102351.31;5006758;28;51096;-41
2021/10/11 04:13:51;;;;;;;;;11.25;11.00;;;;;21.63;46.73;102355.13;4997836;28;50967;-42
2021/10/11 04:16:16;;;;;;;;;16.50;12.50;;;;;21.63;46.61;102355.13;4997470;28;51596;-40
2021/10/11 04:18:42;;;;;;;;;15.00;12.00;;;;;21.63;46.50;102360.66;4980458;28;51117;-47
2021/10/11 04:21:07;;;;;;;;;14.25;11.75;;;;;21.62;46.84;102358.94;5003406;28;50977;-40
2021/10/11 04:23:33;;;;;;;;;11.25;11.25;;;;;21.63;47.16;102371.69;5000222;28;51357;-41
2021/10/11 04:25:59;;;;;;;;;12.25;12.25;;;;;21.62;46.77;102369.97;5008322;28;50987;-40
2021/10/11 04:28:25;;;;;;;;;11.25;11.25;;;;;21.62;46.95;102372.72;5017541;28;50999;-41
2021/10/11 04:30:51;;;;;;;;;11.50;10.75;;;;;21.63;46.72;102377.19;5004371;28;50910;-40
2021/10/11 04:33:16;;;;;;;;;8.75;8.75;;;;;21.62;46.81;102369.97;5004887;28;50867;-43
2021/10/11 04:35:43;;;;;;;;;11.75;10.75;;;;;21.63;47.04;102373.59;5005281;28;51329;-45
2021/10/11 04:38:08;;;;;;;;;10.50;8.00;;;;;21.63;47.20;102376.34;5015980;28;51367;-41
2021/10/11 04:40:35;;;;;;;;;11.75;9.75;;;;;21.61;47.15;102379.28;5007096;28;51476;-42
2021/10/11 04:43:01;;;;;;;;;11.75;10.50;;;;;21.61;46.48;102373.78;5000127;28;51093;-40
2021/10/11 04:45:29;;;;;;;;;11.75;10.75;;;;;21.60;46.90;102378.44;5016470;28;50902;-43
2021/10/11 04:47:56;;;;;;;;;16.00;11.00;;;;;21.60;46.66;102383.97;5016770;28;50941;-43
2021/10/11 04:50:21;;;;;;;;;7.75;7.25;;;;;21.60;46.74;102380.34;5014239;28;50927;-42
2021/10/11 04:52:46;;;;;;;;;13.00;9.25;;;;;21.61;46.86;102382.06;5022732;22;51295;-50
2021/10/11 04:55:12;;;;;;;;;10.25;10.00;;;;;21.59;46.90;102375.88;5018365;28;51094;-44
2021/10/11 04:57:37;;;;;;;;;9.50;9.25;;;;;21.60;47.22;102383.09;5015414;28;51088;-48
2021/10/11 05:00:03;;;;;;;;;8.75;8.50;;;;;21.61;46.86;102387.56;5005725;28;51276;-50
2021/10/11 05:02:29;;;;;;;;;8.00;7.75;;;;;21.61;46.87;102393.94;5000990;28;50990;-50
2021/10/11 05:04:54;;;;;;;;;8.50;8.00;;;;;21.61;47.35;102395.84;4998695;28;51119;-48
2021/10/11 05:07:19;;;;;;;;;9.50;9.50;;;;;21.60;47.41;102394.97;5012460;28;51154;-50
2021/10/11 05:09:45;;;;;;;;;8.25;7.50;;;;;21.60;46.86;102380.34;5007264;28;51272;-51
2021/10/11 05:12:10;;;;;;;;;7.25;5.00;;;;;21.61;46.67;102393.94;5002947;28;51074;-46
2021/10/11 05:14:35;;;;;;;;;10.00;8.50;;;;;21.61;47.07;102385.66;5006515;28;51154;-51
2021/10/11 05:17:01;;;;;;;;;9.00;7.50;;;;;21.60;47.36;102394.97;5003761;28;51179;-47
2021/10/11 05:19:27;;;;;;;;;5.50;5.50;;;;;21.61;47.51;102390.31;5008974;28;51331;-51
2021/10/11 05:21:54;;;;;;;;;10.75;8.25;;;;;21.60;47.06;102389.47;5015334;28;51171;-47
2021/10/11 05:24:19;;;;;;;;;7.25;6.75;;;;;21.61;47.21;102384.81;5005531;28;52866;-51
2021/10/11 05:26:45;;;;;;;;;6.25;6.25;;;;;21.60;47.41;102389.47;5008660;28;51204;-50
2021/10/11 05:29:11;;;;;;;;;8.00;8.00;;;;;21.61;47.44;102390.31;5008501;28;51156;-50
2021/10/11 05:31:37;;;;;;;;;8.00;6.25;;;;;21.61;47.51;102393.09;5003797;28;51379;-46
2021/10/11 05:34:04;;;;;;;;;7.00;6.25;;;;;21.59;47.10;102396.03;5006271;28;52144;-51
2021/10/11 05:36:29;;;;;;;;;6.00;6.00;;;;;21.60;47.60;102397.75;4999274;28;51161;-51
2021/10/11 05:38:54;;;;;;;;;6.50;5.25;;;;;21.60;47.21;102399.66;5013435;28;51375;-52
2021/10/11 05:41:20;;;;;;;;;6.00;5.25;;;;;21.59;47.60;102400.69;5015142;28;51097;-49
2021/10/11 05:43:45;;;;;;;;;8.00;7.00;;;;;21.60;47.57;102399.66;5014608;28;51709;-49
2021/10/11 05:46:11;;;;;;;;;8.00;6.50;;;;;21.58;47.69;102405.34;5010909;28;51109;-53
2021/10/11 05:48:36;;;;;;;;;5.75;4.75;;;;;21.60;47.56;102407.91;4993939;28;51324;-48
2021/10/11 05:51:02;;;;;;;;;8.00;7.00;;;;;21.60;47.45;102407.91;5002233;28;50923;-51
2021/10/11 05:53:27;;;;;;;;;8.25;5.25;;;;;21.60;47.92;102410.69;5014029;28;50991;-54
2021/10/11 05:55:52;;;;;;;;;5.50;5.50;;;;;21.61;47.91;102410.47;5002574;28;51681;-50
2021/10/11 05:58:17;;;;;;;;;10.75;6.75;;;;;21.61;47.99;102404.97;5011264;28;51253;-52
2021/10/11 06:00:43;;;;;;;;;9.00;7.50;;;;;21.62;47.89;102414.09;5000649;28;51257;-50
2021/10/11 06:03:09;;;;;;;;;6.75;6.75;;;;;21.62;48.07;102411.34;5006575;28;51612;-51
2021/10/11 06:05:35;;;;;;;;;7.75;5.25;;;;;21.62;48.04;102416.84;5013281;28;51390;-46
2021/10/11 06:08:00;;;;;;;;;6.25;4.00;;;;;21.63;47.67;102424.06;5005113;28;51031;-52
2021/10/11 06:10:26;;;;;;;;;6.50;4.50;;;;;21.65;47.89;102423.88;4985600;28;51155;-52
2021/10/11 06:12:52;;;;;;;;;7.00;6.75;;;;;21.65;47.96;102430.25;5012770;28;51158;-54
2021/10/11 06:15:17;;;;;;;;;7.25;5.50;;;;;21.67;47.92;102427.28;5010835;28;51024;-52
2021/10/11 06:17:43;;;;;;;;;4.25;4.25;;;;;21.67;47.76;102430.03;5016280;28;51327;-50
2021/10/11 06:20:09;;;;;;;;;7.25;5.00;;;;;21.68;48.46;102429.88;5016290;28;51160;-50
2021/10/11 06:22:34;;;;;;;;;8.50;6.50;;;;;21.69;48.20;102430.75;5013476;28;51042;-52
2021/10/11 06:25:00;;;;;;;;;7.25;7.00;;;;;21.68;48.07;102440.91;5012504;28;51147;-50
2021/10/11 06:27:27;;;;;;;;;5.75;5.75;;;;;21.69;48.28;102441.78;5002381;28;51749;-50
2021/10/11 06:29:53;;;;;;;;;7.75;5.00;;;;;21.68;47.85;102440.91;4997141;28;51712;-49
2021/10/11 06:32:18;;;;;;;;;6.00;4.50;;;;;21.69;47.58;102447.28;5009268;28;51979;-51
2021/10/11 06:34:44;;;;;;;;;6.25;3.75;;;;;21.68;48.20;102438.16;4978576;28;51384;-51
2021/10/11 06:37:09;;;;;;;;;4.50;4.50;;;;;21.68;48.14;102451.09;5000500;28;51107;-53
2021/10/11 06:39:34;;;;;;;;;6.00;3.00;;;;;21.67;47.85;102450.22;5005904;28;51164;-54
2021/10/11 06:41:59;;;;;;;;;5.25;5.25;;;;;21.67;47.93;102452.97;5012246;28;51625;-50
2021/10/11 06:44:25;;;;;;;;;3.25;3.00;;;;;21.68;47.63;102443.66;5014991;28;51110;-52
2021/10/11 06:46:50;;;;;;;;;6.00;5.25;;;;;21.68;47.95;102453.84;5008166;28;51146;-52
2021/10/11 06:49:16;;;;;;;;;6.25;6.00;;;;;21.68;48.05;102456.59;5015105;28;50988;-52
2021/10/11 06:51:42;;;;;;;;;6.00;5.25;;;;;21.69;48.09;102463.84;4990438;28;52232;-50
2021/10/11 06:54:07;;;;;;;;;6.00;3.50;;;;;21.69;47.55;102463.84;5003701;28;51091;-48
2021/10/11 06:56:32;;;;;;;;;5.00;4.00;;;;;21.69;47.98;102463.84;5007417;28;51142;-52
2021/10/11 06:58:57;;;;;;;;;4.25;3.00;;;;;21.68;47.94;102460.22;5004287;28;51380;-52
2021/10/11 07:01:23;;;;;;;;;5.00;4.25;;;;;21.69;47.97;102459.16;5010459;28;51165;-49
2021/10/11 07:03:48;;;;;;;;;5.50;4.00;;;;;21.69;47.89;102448.13;4976249;28;51179;-50
2021/10/11 07:06:24;;;;;;;;;5.00;3.25;;;;;21.68;47.69;102456.59;4995892;28;51222;-52
2021/10/11 07:08:50;;;;;;;;;6.75;5.25;;;;;21.67;47.83;102452.97;4996131;28;51270;-53
2021/10/11 07:11:15;;;;;;;;;3.75;3.50;;;;;21.68;47.79;102456.59;5002334;28;52099;-52
2021/10/11 07:13:40;;;;;;;;;5.50;5.25;;;;;21.67;47.53;102455.72;4998647;28;51325;-52
2021/10/11 07:16:06;;;;;;;;;3.50;3.50;;;;;21.67;47.37;102461.25;4984258;28;51114;-52
2021/10/11 07:18:35;;;;;;;;;3.50;3.50;;;;;21.68;47.62;102471.25;5007478;28;51334;-51
2021/10/11 07:21:05;;;;;;;;;5.50;4.00;;;;;21.68;47.36;102471.25;5000518;28;52048;-52
2021/10/11 07:23:32;;;;;;;;;6.00;5.75;;;;;21.68;47.01;102478.69;4995542;28;51318;-53
2021/10/11 07:25:59;;;;;;;;;6.00;4.25;;;;;21.66;46.41;102484.34;5006998;28;51459;-52
2021/10/11 07:28:25;;;;;;;;;5.00;5.00;;;;;21.65;46.56;102490.06;4996920;28;51172;-53
2021/10/11 07:30:52;;;;;;;;;8.00;5.00;;;;;21.63;45.97;102487.50;5006411;28;51889;-51
2021/10/11 07:33:21;;;;;;;;;7.75;5.00;;;;;21.62;46.40;102496.81;4998005;28;51339;-52
2021/10/11 07:35:47;;;;;;;;;4.00;4.00;;;;;21.59;46.13;102498.06;5014786;28;51174;-51
2021/10/11 07:38:13;;;;;;;;;5.00;5.00;;;;;21.58;45.87;102506.53;5013871;28;51228;-50
2021/10/11 07:40:38;;;;;;;;;6.25;3.50;;;;;21.56;45.64;102509.44;5005587;28;51809;-53
2021/10/11 07:43:04;;;;;;;;;5.25;4.75;;;;;21.55;45.72;102517.91;5004573;28;51143;-51
2021/10/11 07:45:30;;;;;;;;;4.50;3.75;;;;;21.53;45.90;102514.50;4998288;28;51097;-51
2021/10/11 07:47:56;;;;;;;;;6.75;5.00;;;;;21.50;45.91;102510.22;5014058;28;51095;-53
2021/10/11 07:50:21;;;;;;;;;4.00;3.50;;;;;21.49;45.32;102511.28;5007658;28;52237;-53
2021/10/11 07:52:47;;;;;;;;;7.50;5.75;;;;;21.48;45.29;102514.22;5013424;28;51256;-51
2021/10/11 07:55:12;;;;;;;;;4.00;3.25;;;;;21.45;45.66;102507.16;4995183;28;51277;-48
2021/10/11 07:57:39;;;;;;;;;3.50;3.00;;;;;21.43;45.74;102509.25;5008020;28;51059;-52
2021/10/11 08:00:07;;;;;;;;;5.00;3.50;;;;;21.43;45.35;102502.91;5004483;28;52926;-53
2021/10/11 08:02:32;;;;;;;;;5.75;2.50;;;;;21.42;45.33;102507.56;4996989;28;51398;-51
2021/10/11 08:04:58;;;;;;;;;3.00;3.00;;;;;21.41;45.38;102516.03;5007947;28;51015;-49
2021/10/11 08:07:23;;;;;;;;;6.00;3.75;;;;;21.41;45.36;102518.78;5013394;28;51212;-48
2021/10/11 08:09:49;;;;;;;;;4.25;3.75;;;;;21.40;45.87;102517.06;4999028;28;51143;-52
2021/10/11 08:12:14;;;;;;;;;2.00;2.00;;;;;21.39;45.82;102518.97;5012732;28;51143;-51
2021/10/11 08:14:39;;;;;;;;;5.25;3.00;;;;;21.40;46.02;102530.84;5012729;28;50961;-52
2021/10/11 08:17:05;;;;;;;;;3.25;2.75;;;;;21.39;46.03;102530.00;5007647;28;51162;-52
2021/10/11 08:19:30;;;;;;;;;5.25;2.75;;;;;21.39;45.85;102532.75;5002721;28;51946;-51
2021/10/11 08:21:55;;;;;;;;;1.75;1.75;;;;;21.41;45.97;102538.06;4993314;28;51016;-53
2021/10/11 08:24:21;;;;;;;;;4.75;2.25;;;;;21.40;45.58;102523.44;4995476;28;51072;-49
2021/10/11 08:26:46;;;;;;;;;4.25;3.00;;;;;21.42;45.61;102520.47;5001064;28;51129;-53
2021/10/11 08:29:12;;;;;;;;;4.50;3.25;;;;;21.43;46.14;102524.94;5002615;28;51061;-52
2021/10/11 08:31:38;;;;;;;;;4.25;3.00;;;;;21.44;46.13;102523.91;4999525;28;51461;-53
2021/10/11 08:34:04;;;;;;;;;7.25;6.00;;;;;21.45;46.19;102537.50;5001053;28;51116;-51
2021/10/11 08:36:30;;;;;;;;;5.00;4.25;;;;;21.47;46.21;102529.06;5003154;28;51124;-52
2021/10/11 08:38:55;;;;;;;;;9.00;6.75;;;;;21.49;46.34;102524.22;5011976;28;51196;-52
2021/10/11 08:41:21;;;;;;;;;6.00;6.00;;;;;21.49;45.94;102525.06;5008931;28;51138;-52
2021/10/11 08:43:46;;;;;;;;;6.50;6.50;;;;;21.51;46.45;102531.25;4998224;28;51031;-51
2021/10/11 08:46:12;;;;;;;;;6.25;6.00;;;;;21.52;46.92;102523.81;5012334;28;51367;-51
2021/10/11 08:48:37;;;;;;;;;7.25;7.00;;;;;21.54;46.52;102524.47;5011123;28;51868;-52
2021/10/11 08:51:07;;;;;;;;;5.75;4.75;;;;;21.55;46.46;102529.81;5001085;28;51006;-52
2021/10/11 08:53:32;;;;;;;;;6.25;6.25;;;;;21.56;46.25;102528.75;5005191;28;51275;-49
2021/10/11 08:55:58;;;;;;;;;6.25;4.75;;;;;21.58;46.44;102531.34;5007407;28;51158;-50
2021/10/11 08:58:25;;;;;;;;;5.25;4.25;;;;;21.63;46.56;102536.28;5009088;28;51924;-51
2021/10/11 09:00:50;;;;;;;;;5.00;5.00;;;;;21.65;46.48;102539.69;5016528;28;51958;-48
2021/10/11 09:03:18;;;;;;;;;4.50;3.50;;;;;21.70;46.29;102542.75;4999261;28;51336;-47
2021/10/11 09:05:46;;;;;;;;;5.50;5.00;;;;;21.74;46.10;102541.31;4997503;28;51014;-49
2021/10/11 09:08:14;;;;;;;;;4.25;4.25;;;;;21.78;45.92;102542.66;5009066;28;52765;-47
2021/10/11 09:10:51;;;;;;;;;8.50;4.25;;;;;21.83;45.96;102549.31;5007764;28;51051;-51
2021/10/11 09:13:25;;;;;;;;;9.00;6.00;;;;;21.86;46.15;102546.16;4999527;28;51154;-46
2021/10/11 09:16:15;;;;;;;;;6.00;5.25;;;;;21.91;46.78;102548.38;5008276;28;51162;-53
2021/10/11 09:18:48;;;;;;;;;7.25;6.75;;;;;21.95;46.30;102552.44;5007203;28;52839;-49
2021/10/11 09:21:13;;;;;;;;;8.75;6.50;;;;;22.00;46.62;102557.41;5013564;28;51049;-50
2021/10/11 09:23:39;;;;;;;;;8.25;7.00;;;;;22.04;46.77;102547.69;4998730;28;51198;-48
2021/10/11 09:26:16;;;;;;;;;8.25;7.00;;;;;22.08;47.08;102540.75;4999911;28;51296;-49
2021/10/11 09:28:55;;;;;;;;;10.25;8.25;;;;;22.12;46.90;102558.66;4996911;28;51551;-47
2021/10/11 09:31:42;;;;;;;;;6.50;4.00;;;;;22.15;46.90;102542.56;5002904;28;51192;-51
2021/10/11 09:34:15;;;;;;;;;7.00;5.75;;;;;22.20;46.63;102550.28;5001313;28;51049;-51
2021/10/11 09:36:40;;;;;;;;;4.00;4.00;;;;;22.24;46.94;102534.19;4998565;28;51159;-48
2021/10/11 09:39:06;;;;;;;;;6.25;5.75;;;;;22.28;46.99;102530.81;4999372;28;51350;-50
2021/10/11 09:41:32;;;;;;;;;5.00;3.75;;;;;22.31;46.61;102533.22;5008812;28;50996;-53
2021/10/11 09:43:57;;;;;;;;;4.25;2.75;;;;;22.33;46.68;102542.16;5002394;28;51432;-52
2021/10/11 09:46:24;;;;;;;;;7.00;4.75;;;;;22.36;46.49;102539.00;5007367;28;51037;-53
2021/10/11 09:48:55;;;;;;;;;5.25;3.25;;;;;22.37;46.41;102535.19;5007354;28;51063;-50
2021/10/11 09:51:21;;;;;;;;;3.00;3.00;;;;;22.37;45.71;102543.47;5009972;28;51102;-52
2021/10/11 09:53:49;;;;;;;;;3.00;3.00;;;;;22.38;45.72;102534.13;4979338;28;51175;-51
2021/10/11 09:56:15;;;;;;;;;5.00;3.00;;;;;22.40;45.92;102532.03;5015022;28;51318;-49
2021/10/11 09:58:41;;;;;;;;;3.00;3.00;;;;;22.42;45.71;102529.94;4990582;28;52109;-51
2021/10/11 10:01:07;;;;;;;;;4.75;4.00;;;;;22.45;45.86;102531.47;5008468;28;51522;-52
2021/10/11 10:03:34;;;;;;;;;2.75;2.00;;;;;22.46;45.42;102527.66;5004272;28;52236;-52
2021/10/11 10:06:01;;;;;;;;;4.00;3.00;;;;;22.46;45.59;102525.75;5010156;28;51353;-49
2021/10/11 10:08:29;;;;;;;;;2.00;2.00;;;;;22.47;45.67;102526.59;5008188;28;51877;-51
2021/10/11 10:10:57;;;;;;;;;4.50;3.00;;;;;22.47;45.70;102524.69;5009367;28;51328;-51
2021/10/11 10:13:26;;;;;;;;;4.75;3.00;;;;;22.47;45.13;102521.06;5015590;28;51165;-49
2021/10/11 10:15:55;;;;;;;;;2.25;2.25;;;;;22.48;45.18;102528.28;5015944;28;51007;-53
2021/10/11 10:18:21;;;;;;;;;4.75;3.00;;;;;22.47;45.10;102524.69;5008712;28;51837;-53
2021/10/11 10:20:57;;;;;;;;;2.75;2.75;;;;;22.50;45.27;102533.63;4997741;28;51214;-51
2021/10/11 10:23:27;;;;;;;;;3.75;2.75;;;;;22.50;45.13;102537.25;5003098;28;51284;-52
2021/10/11 10:25:53;;;;;;;;;1.25;1.25;;;;;22.52;45.31;102531.53;5014698;28;51225;-53
2021/10/11 10:28:19;;;;;;;;;2.00;2.00;;;;;22.52;44.55;102526.88;5013049;28;52377;-51
2021/10/11 10:31:02;;;;;;;;;2.00;2.00;;;;;22.53;44.63;102527.72;5013904;28;51099;-53
2021/10/11 10:33:39;;;;;;;;;1.00;1.00;;;;;22.53;44.88;102527.72;4980320;28;51086;-52
2021/10/11 10:36:26;;;;;;;;;3.00;2.25;;;;;22.54;44.95;102530.28;5000407;28;51116;-56
2021/10/11 10:39:00;;;;;;;;;4.25;1.25;;;;;22.55;44.28;102525.63;4997154;28;52040;-51
2021/10/11 10:41:27;;;;;;;;;4.00;3.00;;;;;22.55;44.64;102520.09;4995346;28;51316;-52
2021/10/11 10:43:52;;;;;;;;;3.25;2.25;;;;;22.55;44.68;102526.47;4994773;28;51575;-53
2021/10/11 10:46:18;;;;;;;;;1.00;1.00;;;;;22.55;44.49;102515.44;5000909;28;51298;-51
2021/10/11 10:48:52;;;;;;;;;1.00;1.00;;;;;22.57;44.34;102529.03;4980957;28;52808;-52
2021/10/11 10:51:19;;;;;;;;;2.00;2.00;;;;;22.57;44.17;102518.84;5012507;28;51758;-50
2021/10/11 10:53:53;;;;;;;;;2.00;2.00;;;;;22.59;43.87;102507.59;5008985;28;51564;-51
2021/10/11 10:56:18;;;;;;;;;2.00;2.00;;;;;22.60;43.67;102521.19;4995307;28;51430;-52
2021/10/11 10:58:44;;;;;;;;;2.75;2.00;;;;;22.61;43.70;102527.59;5001247;28;51071;-49
2021/10/11 11:01:10;;;;;;;;;4.50;2.75;;;;;22.62;43.76;102521.03;5002696;28;51186;-50
2021/10/11 11:03:35;;;;;;;;;1.00;1.00;;;;;22.61;43.45;102531.19;5013156;28;51220;-52
2021/10/11 11:06:05;;;;;;;;;2.00;1.25;;;;;22.63;43.66;102539.31;5002083;28;51364;-51
2021/10/11 11:08:30;;;;;;;;;2.00;0.75;;;;;22.62;43.51;102535.69;5002548;28;51216;-47
2021/10/11 11:11:00;;;;;;;;;2.00;2.00;;;;;22.62;44.04;102529.31;4995500;28;51313;-53
2021/10/11 11:13:25;;;;;;;;;2.00;1.25;;;;;22.63;44.13;102533.78;5001837;28;51081;-52
2021/10/11 11:15:52;;;;;;;;;3.75;1.75;;;;;22.62;44.08;102537.59;5004304;28;51427;-52